Terminal Aerodrome Forecast
Issued by NWS Greer, SC

Home | Current Version | Previous Version | Text Only | Print | Product List | Glossary On
Versions: 1 2 3 4 5 6 7 8 9 10 11 12 13 14 15 16 17 18 19 20 21 22 23 24 25 26 27 28 29 30 31 32 33 34 35 36 37 38 39 40 41 42
000
FTUS42 KGSP 252043 AAA
TAFCLT
TAF AMD
KCLT 252043Z 2521/2618 06012KT P6SM SCT040
     FM260000 07009KT P6SM SCT025 BKN035
     FM260400 06008KT P6SM OVC020
     FM260800 05007KT P6SM OVC008
     FM261300 05007KT P6SM BKN020
     FM261500 06007KT P6SM SCT050=

USA.gov is the U.S. government's official web portal to all federal, state and local government web resources and services.